Terminal Aerodrome Forecast
Issued by NWS Wilmington, OH

Current Version | Previous Version | Graphics & Text | Print | Product List | Glossary On
Versions: 1 2 3 4 5 6 7 8 9 10 11 12 13 14 15 16 17 18 19 20 21 22 23 24 25 26 27 28 29 30 31 32
000
FTUS41 KILN 221305 AAB
TAFILN
TAF AMD
KILN 221305Z 2213/2312 05014G23KT P6SM -RA SCT008 OVC035
      TEMPO 2213/2215 5SM -RA BR OVC008
     FM221500 05011KT P6SM SCT010 OVC050
     FM222100 07008KT P6SM BKN012 OVC070
     FM230300 08005KT P6SM OVC008
     FM230800 10007KT 4SM -SHRA BR OVC006=

USA.gov is the U.S. government's official web portal to all federal, state and local government web resources and services.